sensor_id;sensor_type;location;lat;lon;timestamp;P1;durP1;ratioP1;P2;durP2;ratioP2
43857;SDS011;29507;51.284;5.758;2023-02-28T00:00:18;4.78;;;2.38;;
43857;SDS011;29507;51.284;5.758;2023-02-28T00:02:44;7.32;;;3.08;;
43857;SDS011;29507;51.284;5.758;2023-02-28T00:05:11;9.93;;;2.90;;
43857;SDS011;29507;51.284;5.758;2023-02-28T00:07:38;9.27;;;2.95;;
43857;SDS011;29507;51.284;5.758;2023-02-28T00:10:04;5.85;;;2.67;;
43857;SDS011;29507;51.284;5.758;2023-02-28T00:12:32;6.45;;;3.17;;
43857;SDS011;29507;51.284;5.758;2023-02-28T00:14:58;7.18;;;2.67;;
43857;SDS011;29507;51.284;5.758;2023-02-28T00:17:24;7.53;;;2.55;;
43857;SDS011;29507;51.284;5.758;2023-02-28T00:19:50;5.07;;;2.38;;
43857;SDS011;29507;51.284;5.758;2023-02-28T00:22:17;9.10;;;2.92;;
43857;SDS011;29507;51.284;5.758;2023-02-28T00:24:45;4.50;;;2.33;;
43857;SDS011;29507;51.284;5.758;2023-02-28T00:27:12;8.57;;;2.78;;
43857;SDS011;29507;51.284;5.758;2023-02-28T00:29:37;6.22;;;2.67;;
43857;SDS011;29507;51.284;5.758;2023-02-28T00:32:04;5.03;;;2.25;;
43857;SDS011;29507;51.284;5.758;2023-02-28T00:34:30;5.95;;;2.58;;
43857;SDS011;29507;51.284;5.758;2023-02-28T00:37:03;5.82;;;2.60;;
43857;SDS011;29507;51.284;5.758;2023-02-28T00:39:34;13.77;;;3.30;;
43857;SDS011;29507;51.284;5.758;2023-02-28T00:42:01;10.23;;;3.05;;
43857;SDS011;29507;51.284;5.758;2023-02-28T00:44:27;15.65;;;3.17;;
43857;SDS011;29507;51.284;5.758;2023-02-28T00:46:53;11.65;;;4.20;;
43857;SDS011;29507;51.284;5.758;2023-02-28T00:49:19;9.00;;;2.97;;
43857;SDS011;29507;51.284;5.758;2023-02-28T00:51:45;6.90;;;2.95;;
43857;SDS011;29507;51.284;5.758;2023-02-28T00:54:11;15.50;;;2.72;;
43857;SDS011;29507;51.284;5.758;2023-02-28T00:56:37;7.53;;;3.30;;
43857;SDS011;29507;51.284;5.758;2023-02-28T00:59:02;5.97;;;2.88;;
43857;SDS011;29507;51.284;5.758;2023-02-28T01:01:28;5.47;;;2.85;;
43857;SDS011;29507;51.284;5.758;2023-02-28T01:03:53;5.80;;;3.40;;
43857;SDS011;29507;51.284;5.758;2023-02-28T01:06:19;5.60;;;2.80;;
43857;SDS011;29507;51.284;5.758;2023-02-28T01:08:45;6.35;;;2.70;;
43857;SDS011;29507;51.284;5.758;2023-02-28T01:11:11;11.32;;;3.40;;
43857;SDS011;29507;51.284;5.758;2023-02-28T01:13:39;6.38;;;3.10;;
43857;SDS011;29507;51.284;5.758;2023-02-28T01:16:04;6.57;;;3.05;;
43857;SDS011;29507;51.284;5.758;2023-02-28T01:18:30;6.85;;;2.95;;
43857;SDS011;29507;51.284;5.758;2023-02-28T01:20:56;8.98;;;3.30;;
43857;SDS011;29507;51.284;5.758;2023-02-28T01:23:22;10.15;;;2.92;;
43857;SDS011;29507;51.284;5.758;2023-02-28T01:25:49;7.00;;;3.08;;
43857;SDS011;29507;51.284;5.758;2023-02-28T01:28:15;6.43;;;3.05;;
43857;SDS011;29507;51.284;5.758;2023-02-28T01:30:41;7.18;;;3.05;;
43857;SDS011;29507;51.284;5.758;2023-02-28T01:33:07;11.63;;;3.50;;
43857;SDS011;29507;51.284;5.758;2023-02-28T01:35:33;9.68;;;2.88;;
43857;SDS011;29507;51.284;5.758;2023-02-28T01:37:59;8.60;;;4.05;;
43857;SDS011;29507;51.284;5.758;2023-02-28T01:40:25;6.00;;;3.05;;
43857;SDS011;29507;51.284;5.758;2023-02-28T01:42:50;12.60;;;4.10;;
43857;SDS011;29507;51.284;5.758;2023-02-28T01:45:26;8.13;;;3.17;;
43857;SDS011;29507;51.284;5.758;2023-02-28T01:47:58;7.03;;;3.10;;
43857;SDS011;29507;51.284;5.758;2023-02-28T01:50:30;7.28;;;2.80;;
43857;SDS011;29507;51.284;5.758;2023-02-28T01:53:01;7.57;;;2.97;;
43857;SDS011;29507;51.284;5.758;2023-02-28T01:55:31;11.18;;;3.10;;
43857;SDS011;29507;51.284;5.758;2023-02-28T01:57:59;7.82;;;3.05;;
43857;SDS011;29507;51.284;5.758;2023-02-28T02:02:54;8.10;;;2.75;;
43857;SDS011;29507;51.284;5.758;2023-02-28T02:05:27;5.18;;;3.03;;
43857;SDS011;29507;51.284;5.758;2023-02-28T02:07:56;7.38;;;3.33;;
43857;SDS011;29507;51.284;5.758;2023-02-28T02:21:30;7.13;;;2.58;;
43857;SDS011;29507;51.284;5.758;2023-02-28T02:38:04;5.60;;;3.10;;
43857;SDS011;29507;51.284;5.758;2023-02-28T02:40:35;9.15;;;2.95;;
43857;SDS011;29507;51.284;5.758;2023-02-28T02:43:13;11.25;;;3.42;;
43857;SDS011;29507;51.284;5.758;2023-02-28T02:45:55;9.68;;;3.50;;
43857;SDS011;29507;51.284;5.758;2023-02-28T02:48:25;5.97;;;3.17;;
43857;SDS011;29507;51.284;5.758;2023-02-28T02:50:57;8.00;;;3.88;;
43857;SDS011;29507;51.284;5.758;2023-02-28T02:53:27;7.05;;;3.40;;
43857;SDS011;29507;51.284;5.758;2023-02-28T02:55:57;6.20;;;3.85;;
43857;SDS011;29507;51.284;5.758;2023-02-28T02:58:25;9.32;;;3.53;;
43857;SDS011;29507;51.284;5.758;2023-02-28T03:00:56;12.82;;;3.58;;
43857;SDS011;29507;51.284;5.758;2023-02-28T03:03:25;7.53;;;3.03;;
43857;SDS011;29507;51.284;5.758;2023-02-28T03:05:55;8.10;;;3.55;;
43857;SDS011;29507;51.284;5.758;2023-02-28T03:08:22;11.40;;;4.22;;
43857;SDS011;29507;51.284;5.758;2023-02-28T03:10:49;7.50;;;3.58;;
43857;SDS011;29507;51.284;5.758;2023-02-28T03:27:08;10.70;;;3.15;;
43857;SDS011;29507;51.284;5.758;2023-02-28T03:32:33;7.65;;;3.63;;
43857;SDS011;29507;51.284;5.758;2023-02-28T03:35:07;9.90;;;3.10;;
43857;SDS011;29507;51.284;5.758;2023-02-28T03:37:46;6.50;;;3.38;;
43857;SDS011;29507;51.284;5.758;2023-02-28T03:40:25;12.10;;;4.35;;
43857;SDS011;29507;51.284;5.758;2023-02-28T03:42:56;11.98;;;3.80;;
43857;SDS011;29507;51.284;5.758;2023-02-28T03:45:30;11.70;;;3.83;;
43857;SDS011;29507;51.284;5.758;2023-02-28T03:48:13;11.27;;;3.15;;
43857;SDS011;29507;51.284;5.758;2023-02-28T03:50:45;8.27;;;3.05;;
43857;SDS011;29507;51.284;5.758;2023-02-28T03:53:31;9.68;;;3.53;;
43857;SDS011;29507;51.284;5.758;2023-02-28T03:58:55;6.85;;;3.30;;
43857;SDS011;29507;51.284;5.758;2023-02-28T04:01:27;10.23;;;3.85;;
43857;SDS011;29507;51.284;5.758;2023-02-28T04:04:08;6.82;;;3.80;;
43857;SDS011;29507;51.284;5.758;2023-02-28T04:06:34;6.68;;;3.20;;
43857;SDS011;29507;51.284;5.758;2023-02-28T04:09:01;8.85;;;3.22;;
43857;SDS011;29507;51.284;5.758;2023-02-28T04:13:59;6.68;;;3.47;;
43857;SDS011;29507;51.284;5.758;2023-02-28T04:16:26;8.30;;;2.67;;
43857;SDS011;29507;51.284;5.758;2023-02-28T04:18:51;7.70;;;3.13;;
43857;SDS011;29507;51.284;5.758;2023-02-28T04:21:17;6.53;;;3.22;;
43857;SDS011;29507;51.284;5.758;2023-02-28T04:23:46;6.95;;;3.38;;
43857;SDS011;29507;51.284;5.758;2023-02-28T04:26:11;6.22;;;3.42;;
43857;SDS011;29507;51.284;5.758;2023-02-28T04:28:37;10.48;;;3.00;;
43857;SDS011;29507;51.284;5.758;2023-02-28T04:31:04;13.80;;;3.83;;
43857;SDS011;29507;51.284;5.758;2023-02-28T04:33:30;11.70;;;3.60;;
43857;SDS011;29507;51.284;5.758;2023-02-28T04:35:58;7.30;;;3.20;;
43857;SDS011;29507;51.284;5.758;2023-02-28T04:38:24;11.25;;;2.80;;
43857;SDS011;29507;51.284;5.758;2023-02-28T04:40:50;6.80;;;3.33;;
43857;SDS011;29507;51.284;5.758;2023-02-28T04:43:16;7.72;;;2.85;;
43857;SDS011;29507;51.284;5.758;2023-02-28T04:45:41;5.05;;;2.70;;
43857;SDS011;29507;51.284;5.758;2023-02-28T04:48:07;5.93;;;3.17;;
43857;SDS011;29507;51.284;5.758;2023-02-28T04:50:32;9.80;;;4.07;;
43857;SDS011;29507;51.284;5.758;2023-02-28T04:52:58;6.28;;;3.75;;
43857;SDS011;29507;51.284;5.758;2023-02-28T04:55:23;7.03;;;3.75;;
43857;SDS011;29507;51.284;5.758;2023-02-28T04:57:49;7.20;;;2.88;;
43857;SDS011;29507;51.284;5.758;2023-02-28T05:00:15;5.60;;;2.90;;
43857;SDS011;29507;51.284;5.758;2023-02-28T05:02:41;6.35;;;3.05;;
43857;SDS011;29507;51.284;5.758;2023-02-28T05:05:07;8.32;;;3.70;;
43857;SDS011;29507;51.284;5.758;2023-02-28T05:07:33;6.55;;;3.45;;
43857;SDS011;29507;51.284;5.758;2023-02-28T05:09:59;7.63;;;3.38;;
43857;SDS011;29507;51.284;5.758;2023-02-28T05:12:24;8.60;;;3.95;;
43857;SDS011;29507;51.284;5.758;2023-02-28T05:14:50;8.23;;;3.65;;
43857;SDS011;29507;51.284;5.758;2023-02-28T05:17:16;5.45;;;3.10;;
43857;SDS011;29507;51.284;5.758;2023-02-28T05:19:41;8.48;;;3.78;;
43857;SDS011;29507;51.284;5.758;2023-02-28T05:22:12;6.25;;;3.17;;
43857;SDS011;29507;51.284;5.758;2023-02-28T05:24:40;6.95;;;3.65;;
43857;SDS011;29507;51.284;5.758;2023-02-28T05:27:07;14.50;;;4.22;;
43857;SDS011;29507;51.284;5.758;2023-02-28T05:29:33;11.18;;;3.83;;
43857;SDS011;29507;51.284;5.758;2023-02-28T05:31:59;15.65;;;4.38;;
43857;SDS011;29507;51.284;5.758;2023-02-28T05:34:25;9.38;;;3.80;;
43857;SDS011;29507;51.284;5.758;2023-02-28T05:36:50;10.32;;;3.80;;
43857;SDS011;29507;51.284;5.758;2023-02-28T05:39:16;7.95;;;3.40;;
43857;SDS011;29507;51.284;5.758;2023-02-28T05:41:42;10.35;;;3.60;;
43857;SDS011;29507;51.284;5.758;2023-02-28T05:44:08;7.88;;;4.20;;
43857;SDS011;29507;51.284;5.758;2023-02-28T05:46:34;8.55;;;3.22;;
43857;SDS011;29507;51.284;5.758;2023-02-28T05:49:00;10.45;;;3.90;;
43857;SDS011;29507;51.284;5.758;2023-02-28T05:51:26;10.13;;;3.67;;
43857;SDS011;29507;51.284;5.758;2023-02-28T05:53:52;9.38;;;3.53;;
43857;SDS011;29507;51.284;5.758;2023-02-28T05:56:18;12.65;;;3.97;;
43857;SDS011;29507;51.284;5.758;2023-02-28T05:58:43;7.85;;;4.25;;
43857;SDS011;29507;51.284;5.758;2023-02-28T06:01:21;5.97;;;3.25;;
43857;SDS011;29507;51.284;5.758;2023-02-28T06:03:48;18.05;;;3.95;;
43857;SDS011;29507;51.284;5.758;2023-02-28T06:06:14;7.13;;;3.47;;
43857;SDS011;29507;51.284;5.758;2023-02-28T06:08:39;6.75;;;3.63;;
43857;SDS011;29507;51.284;5.758;2023-02-28T06:11:05;10.25;;;4.13;;
43857;SDS011;29507;51.284;5.758;2023-02-28T06:13:31;13.85;;;3.75;;
43857;SDS011;29507;51.284;5.758;2023-02-28T06:16:00;10.50;;;3.88;;
43857;SDS011;29507;51.284;5.758;2023-02-28T06:18:26;9.38;;;4.15;;
43857;SDS011;29507;51.284;5.758;2023-02-28T06:20:52;9.68;;;3.67;;
43857;SDS011;29507;51.284;5.758;2023-02-28T06:23:19;6.60;;;3.15;;
43857;SDS011;29507;51.284;5.758;2023-02-28T06:25:46;8.50;;;3.65;;
43857;SDS011;29507;51.284;5.758;2023-02-28T06:28:12;8.57;;;4.35;;
43857;SDS011;29507;51.284;5.758;2023-02-28T06:30:38;10.68;;;4.10;;
43857;SDS011;29507;51.284;5.758;2023-02-28T06:33:04;10.02;;;4.07;;
43857;SDS011;29507;51.284;5.758;2023-02-28T06:35:29;9.82;;;4.35;;
43857;SDS011;29507;51.284;5.758;2023-02-28T06:37:55;10.68;;;4.10;;
43857;SDS011;29507;51.284;5.758;2023-02-28T06:40:21;9.55;;;4.22;;
43857;SDS011;29507;51.284;5.758;2023-02-28T06:42:46;13.55;;;4.68;;
43857;SDS011;29507;51.284;5.758;2023-02-28T06:45:12;8.52;;;3.95;;
43857;SDS011;29507;51.284;5.758;2023-02-28T06:47:39;9.02;;;3.92;;
43857;SDS011;29507;51.284;5.758;2023-02-28T06:50:06;14.00;;;4.70;;
43857;SDS011;29507;51.284;5.758;2023-02-28T06:52:34;9.90;;;4.43;;
43857;SDS011;29507;51.284;5.758;2023-02-28T06:55:02;8.23;;;4.60;;
43857;SDS011;29507;51.284;5.758;2023-02-28T06:57:33;8.90;;;4.68;;
43857;SDS011;29507;51.284;5.758;2023-02-28T07:00:00;8.82;;;4.28;;
43857;SDS011;29507;51.284;5.758;2023-02-28T07:02:28;12.40;;;4.28;;
43857;SDS011;29507;51.284;5.758;2023-02-28T07:04:54;10.57;;;4.13;;
43857;SDS011;29507;51.284;5.758;2023-02-28T07:07:20;11.25;;;4.32;;
43857;SDS011;29507;51.284;5.758;2023-02-28T07:09:45;9.10;;;3.30;;
43857;SDS011;29507;51.284;5.758;2023-02-28T07:12:11;10.27;;;3.70;;
43857;SDS011;29507;51.284;5.758;2023-02-28T07:14:37;8.68;;;3.72;;
43857;SDS011;29507;51.284;5.758;2023-02-28T07:17:02;7.18;;;3.40;;
43857;SDS011;29507;51.284;5.758;2023-02-28T07:19:28;8.82;;;3.22;;
43857;SDS011;29507;51.284;5.758;2023-02-28T07:21:54;8.07;;;3.17;;
43857;SDS011;29507;51.284;5.758;2023-02-28T07:24:19;6.50;;;3.10;;
43857;SDS011;29507;51.284;5.758;2023-02-28T07:26:45;9.52;;;3.08;;
43857;SDS011;29507;51.284;5.758;2023-02-28T07:29:11;7.68;;;2.95;;
43857;SDS011;29507;51.284;5.758;2023-02-28T07:31:36;6.53;;;2.65;;
43857;SDS011;29507;51.284;5.758;2023-02-28T07:34:02;6.38;;;3.08;;
43857;SDS011;29507;51.284;5.758;2023-02-28T07:36:28;8.20;;;3.08;;
43857;SDS011;29507;51.284;5.758;2023-02-28T07:38:53;10.82;;;2.90;;
43857;SDS011;29507;51.284;5.758;2023-02-28T07:41:20;9.52;;;2.65;;
43857;SDS011;29507;51.284;5.758;2023-02-28T07:43:48;7.03;;;2.50;;
43857;SDS011;29507;51.284;5.758;2023-02-28T07:46:14;5.70;;;2.20;;
43857;SDS011;29507;51.284;5.758;2023-02-28T07:48:41;5.00;;;2.25;;
43857;SDS011;29507;51.284;5.758;2023-02-28T07:51:07;5.30;;;2.78;;
43857;SDS011;29507;51.284;5.758;2023-02-28T07:53:33;4.65;;;2.08;;
43857;SDS011;29507;51.284;5.758;2023-02-28T07:55:59;4.88;;;2.15;;
43857;SDS011;29507;51.284;5.758;2023-02-28T07:58:27;8.82;;;3.15;;
43857;SDS011;29507;51.284;5.758;2023-02-28T08:00:54;9.02;;;3.35;;
43857;SDS011;29507;51.284;5.758;2023-02-28T08:03:21;6.07;;;2.40;;
43857;SDS011;29507;51.284;5.758;2023-02-28T08:05:48;6.03;;;2.83;;
43857;SDS011;29507;51.284;5.758;2023-02-28T08:08:14;6.20;;;2.63;;
43857;SDS011;29507;51.284;5.758;2023-02-28T08:10:40;4.30;;;2.30;;
43857;SDS011;29507;51.284;5.758;2023-02-28T08:13:06;7.00;;;2.05;;
43857;SDS011;29507;51.284;5.758;2023-02-28T08:15:32;4.70;;;2.20;;
43857;SDS011;29507;51.284;5.758;2023-02-28T08:17:57;6.45;;;2.42;;
43857;SDS011;29507;51.284;5.758;2023-02-28T08:20:24;4.20;;;2.05;;
43857;SDS011;29507;51.284;5.758;2023-02-28T08:22:50;4.85;;;2.20;;
43857;SDS011;29507;51.284;5.758;2023-02-28T08:25:16;8.82;;;3.42;;
43857;SDS011;29507;51.284;5.758;2023-02-28T08:27:42;5.80;;;2.60;;
43857;SDS011;29507;51.284;5.758;2023-02-28T08:30:09;6.78;;;2.42;;
43857;SDS011;29507;51.284;5.758;2023-02-28T08:32:36;5.32;;;2.10;;
43857;SDS011;29507;51.284;5.758;2023-02-28T08:35:02;6.15;;;2.47;;
43857;SDS011;29507;51.284;5.758;2023-02-28T08:37:28;6.47;;;2.28;;
43857;SDS011;29507;51.284;5.758;2023-02-28T08:39:54;3.92;;;1.90;;
43857;SDS011;29507;51.284;5.758;2023-02-28T08:42:20;7.40;;;2.47;;
43857;SDS011;29507;51.284;5.758;2023-02-28T08:44:45;3.55;;;2.13;;
43857;SDS011;29507;51.284;5.758;2023-02-28T08:47:11;4.57;;;2.05;;
43857;SDS011;29507;51.284;5.758;2023-02-28T08:49:37;4.40;;;1.95;;
43857;SDS011;29507;51.284;5.758;2023-02-28T08:52:05;9.50;;;2.35;;
43857;SDS011;29507;51.284;5.758;2023-02-28T08:54:31;8.98;;;2.40;;
43857;SDS011;29507;51.284;5.758;2023-02-28T08:56:58;4.88;;;2.10;;
43857;SDS011;29507;51.284;5.758;2023-02-28T08:59:23;5.20;;;2.00;;
43857;SDS011;29507;51.284;5.758;2023-02-28T09:01:49;4.38;;;1.92;;
43857;SDS011;29507;51.284;5.758;2023-02-28T09:04:15;3.95;;;1.48;;
43857;SDS011;29507;51.284;5.758;2023-02-28T09:06:40;5.28;;;1.50;;
43857;SDS011;29507;51.284;5.758;2023-02-28T09:09:06;4.30;;;2.17;;
43857;SDS011;29507;51.284;5.758;2023-02-28T09:11:32;4.03;;;1.85;;
43857;SDS011;29507;51.284;5.758;2023-02-28T09:14:01;6.45;;;1.73;;
43857;SDS011;29507;51.284;5.758;2023-02-28T09:16:28;4.28;;;1.55;;
43857;SDS011;29507;51.284;5.758;2023-02-28T09:18:59;3.75;;;1.70;;
43857;SDS011;29507;51.284;5.758;2023-02-28T09:21:25;3.38;;;1.50;;
43857;SDS011;29507;51.284;5.758;2023-02-28T09:23:51;5.03;;;1.42;;
43857;SDS011;29507;51.284;5.758;2023-02-28T09:26:21;4.68;;;2.22;;
43857;SDS011;29507;51.284;5.758;2023-02-28T09:28:49;3.88;;;1.80;;
43857;SDS011;29507;51.284;5.758;2023-02-28T09:31:16;5.15;;;1.75;;
43857;SDS011;29507;51.284;5.758;2023-02-28T09:33:45;6.10;;;1.63;;
43857;SDS011;29507;51.284;5.758;2023-02-28T09:36:12;3.97;;;1.77;;
43857;SDS011;29507;51.284;5.758;2023-02-28T09:38:38;3.75;;;1.50;;
43857;SDS011;29507;51.284;5.758;2023-02-28T09:41:11;4.00;;;1.10;;
43857;SDS011;29507;51.284;5.758;2023-02-28T09:43:44;2.83;;;1.50;;
43857;SDS011;29507;51.284;5.758;2023-02-28T09:48:59;2.83;;;1.20;;
43857;SDS011;29507;51.284;5.758;2023-02-28T09:51:30;2.30;;;0.95;;
43857;SDS011;29507;51.284;5.758;2023-02-28T09:54:13;3.63;;;0.98;;
43857;SDS011;29507;51.284;5.758;2023-02-28T09:56:44;2.22;;;1.05;;
43857;SDS011;29507;51.284;5.758;2023-02-28T10:01:54;2.27;;;1.17;;
43857;SDS011;29507;51.284;5.758;2023-02-28T10:04:40;4.45;;;0.98;;
43857;SDS011;29507;51.284;5.758;2023-02-28T10:07:18;2.42;;;1.05;;
43857;SDS011;29507;51.284;5.758;2023-02-28T10:09:56;2.70;;;1.15;;
43857;SDS011;29507;51.284;5.758;2023-02-28T10:12:25;3.55;;;1.10;;
43857;SDS011;29507;51.284;5.758;2023-02-28T10:14:53;3.55;;;1.05;;
43857;SDS011;29507;51.284;5.758;2023-02-28T10:17:25;3.92;;;0.90;;
43857;SDS011;29507;51.284;5.758;2023-02-28T10:20:09;2.83;;;1.20;;
43857;SDS011;29507;51.284;5.758;2023-02-28T10:22:45;3.20;;;1.50;;
43857;SDS011;29507;51.284;5.758;2023-02-28T10:25:20;1.77;;;0.90;;
43857;SDS011;29507;51.284;5.758;2023-02-28T10:27:49;3.22;;;1.20;;
43857;SDS011;29507;51.284;5.758;2023-02-28T10:30:18;2.85;;;1.30;;
43857;SDS011;29507;51.284;5.758;2023-02-28T10:32:53;2.22;;;1.17;;
43857;SDS011;29507;51.284;5.758;2023-02-28T10:35:23;2.55;;;1.35;;
43857;SDS011;29507;51.284;5.758;2023-02-28T10:37:51;5.30;;;1.50;;
43857;SDS011;29507;51.284;5.758;2023-02-28T10:43:01;2.50;;;1.42;;
43857;SDS011;29507;51.284;5.758;2023-02-28T10:45:30;3.30;;;1.58;;
43857;SDS011;29507;51.284;5.758;2023-02-28T10:48:06;3.88;;;1.50;;
43857;SDS011;29507;51.284;5.758;2023-02-28T10:56:02;3.53;;;1.00;;
43857;SDS011;29507;51.284;5.758;2023-02-28T11:03:55;3.67;;;1.15;;
43857;SDS011;29507;51.284;5.758;2023-02-28T11:08:56;2.88;;;1.20;;
43857;SDS011;29507;51.284;5.758;2023-02-28T11:11:24;2.53;;;1.10;;
43857;SDS011;29507;51.284;5.758;2023-02-28T11:13:54;3.22;;;1.27;;
43857;SDS011;29507;51.284;5.758;2023-02-28T11:18:56;2.35;;;1.10;;
43857;SDS011;29507;51.284;5.758;2023-02-28T11:21:29;1.95;;;0.60;;
43857;SDS011;29507;51.284;5.758;2023-02-28T11:24:02;3.05;;;0.90;;
43857;SDS011;29507;51.284;5.758;2023-02-28T11:26:42;2.65;;;1.05;;
43857;SDS011;29507;51.284;5.758;2023-02-28T11:29:11;3.13;;;1.23;;
43857;SDS011;29507;51.284;5.758;2023-02-28T11:31:43;2.50;;;1.23;;
43857;SDS011;29507;51.284;5.758;2023-02-28T11:34:26;2.45;;;1.02;;
43857;SDS011;29507;51.284;5.758;2023-02-28T11:36:56;1.92;;;0.98;;
43857;SDS011;29507;51.284;5.758;2023-02-28T11:39:23;3.65;;;1.02;;
43857;SDS011;29507;51.284;5.758;2023-02-28T11:47:27;3.00;;;1.23;;
43857;SDS011;29507;51.284;5.758;2023-02-28T11:50:02;2.63;;;1.20;;
43857;SDS011;29507;51.284;5.758;2023-02-28T11:52:39;2.42;;;1.15;;
43857;SDS011;29507;51.284;5.758;2023-02-28T11:58:22;3.38;;;1.50;;
43857;SDS011;29507;51.284;5.758;2023-02-28T12:04:03;4.30;;;1.77;;
43857;SDS011;29507;51.284;5.758;2023-02-28T12:06:28;3.88;;;1.25;;
43857;SDS011;29507;51.284;5.758;2023-02-28T12:09:20;6.53;;;1.70;;
43857;SDS011;29507;51.284;5.758;2023-02-28T12:20:03;3.00;;;1.02;;
43857;SDS011;29507;51.284;5.758;2023-02-28T12:25:33;3.88;;;1.50;;
43857;SDS011;29507;51.284;5.758;2023-02-28T12:28:31;4.70;;;1.33;;
43857;SDS011;29507;51.284;5.758;2023-02-28T12:34:01;2.95;;;1.20;;
43857;SDS011;29507;51.284;5.758;2023-02-28T12:36:31;5.38;;;1.20;;
43857;SDS011;29507;51.284;5.758;2023-02-28T12:39:13;3.70;;;1.33;;
43857;SDS011;29507;51.284;5.758;2023-02-28T12:41:54;2.90;;;1.30;;
43857;SDS011;29507;51.284;5.758;2023-02-28T12:44:35;3.28;;;0.95;;
43857;SDS011;29507;51.284;5.758;2023-02-28T12:47:09;4.07;;;1.20;;
43857;SDS011;29507;51.284;5.758;2023-02-28T12:49:48;3.63;;;1.58;;
43857;SDS011;29507;51.284;5.758;2023-02-28T12:52:15;4.03;;;1.50;;
43857;SDS011;29507;51.284;5.758;2023-02-28T12:54:56;3.35;;;1.40;;
43857;SDS011;29507;51.284;5.758;2023-02-28T13:00:19;2.33;;;1.20;;
43857;SDS011;29507;51.284;5.758;2023-02-28T13:06:22;3.08;;;1.17;;
43857;SDS011;29507;51.284;5.758;2023-02-28T13:09:12;3.53;;;1.15;;
43857;SDS011;29507;51.284;5.758;2023-02-28T13:11:52;3.13;;;1.27;;
43857;SDS011;29507;51.284;5.758;2023-02-28T13:14:26;3.90;;;1.58;;
43857;SDS011;29507;51.284;5.758;2023-02-28T13:19:40;3.95;;;1.50;;
43857;SDS011;29507;51.284;5.758;2023-02-28T13:22:16;3.35;;;1.63;;
43857;SDS011;29507;51.284;5.758;2023-02-28T13:25:04;4.15;;;1.35;;
43857;SDS011;29507;51.284;5.758;2023-02-28T13:28:10;3.35;;;1.30;;
43857;SDS011;29507;51.284;5.758;2023-02-28T13:36:00;3.63;;;1.25;;
43857;SDS011;29507;51.284;5.758;2023-02-28T13:38:47;3.17;;;1.67;;
43857;SDS011;29507;51.284;5.758;2023-02-28T13:41:40;3.72;;;1.30;;
43857;SDS011;29507;51.284;5.758;2023-02-28T13:44:14;6.95;;;1.42;;
43857;SDS011;29507;51.284;5.758;2023-02-28T13:51:48;6.15;;;1.63;;
43857;SDS011;29507;51.284;5.758;2023-02-28T13:57:03;3.03;;;1.20;;
43857;SDS011;29507;51.284;5.758;2023-02-28T13:59:54;3.15;;;0.98;;
43857;SDS011;29507;51.284;5.758;2023-02-28T14:05:21;3.28;;;1.48;;
43857;SDS011;29507;51.284;5.758;2023-02-28T14:07:52;3.08;;;1.35;;
43857;SDS011;29507;51.284;5.758;2023-02-28T14:10:25;6.40;;;1.83;;
43857;SDS011;29507;51.284;5.758;2023-02-28T14:16:02;2.42;;;1.20;;
43857;SDS011;29507;51.284;5.758;2023-02-28T14:18:34;2.92;;;1.25;;
43857;SDS011;29507;51.284;5.758;2023-02-28T14:26:49;4.03;;;1.55;;
43857;SDS011;29507;51.284;5.758;2023-02-28T14:32:26;2.88;;;1.77;;
43857;SDS011;29507;51.284;5.758;2023-02-28T14:37:30;2.45;;;1.10;;
43857;SDS011;29507;51.284;5.758;2023-02-28T14:40:01;2.38;;;1.35;;
43857;SDS011;29507;51.284;5.758;2023-02-28T14:42:33;3.03;;;1.27;;
43857;SDS011;29507;51.284;5.758;2023-02-28T14:45:01;3.20;;;1.30;;
43857;SDS011;29507;51.284;5.758;2023-02-28T14:47:28;3.30;;;1.40;;
43857;SDS011;29507;51.284;5.758;2023-02-28T14:49:57;5.00;;;1.90;;
43857;SDS011;29507;51.284;5.758;2023-02-28T14:52:24;3.63;;;1.50;;
43857;SDS011;29507;51.284;5.758;2023-02-28T14:54:55;7.57;;;1.70;;
43857;SDS011;29507;51.284;5.758;2023-02-28T14:57:27;3.42;;;1.65;;
43857;SDS011;29507;51.284;5.758;2023-02-28T15:00:03;3.42;;;1.50;;
43857;SDS011;29507;51.284;5.758;2023-02-28T15:02:33;2.63;;;1.38;;
43857;SDS011;29507;51.284;5.758;2023-02-28T15:05:01;3.72;;;1.60;;
43857;SDS011;29507;51.284;5.758;2023-02-28T15:07:45;5.25;;;1.73;;
43857;SDS011;29507;51.284;5.758;2023-02-28T15:10:19;3.30;;;1.50;;
43857;SDS011;29507;51.284;5.758;2023-02-28T15:15:24;3.22;;;1.50;;
43857;SDS011;29507;51.284;5.758;2023-02-28T15:20:42;2.42;;;1.10;;
43857;SDS011;29507;51.284;5.758;2023-02-28T15:23:09;4.82;;;1.77;;
43857;SDS011;29507;51.284;5.758;2023-02-28T15:25:35;4.43;;;1.90;;
43857;SDS011;29507;51.284;5.758;2023-02-28T15:28:01;3.65;;;1.55;;
43857;SDS011;29507;51.284;5.758;2023-02-28T15:30:28;4.18;;;1.50;;
43857;SDS011;29507;51.284;5.758;2023-02-28T15:35:37;3.90;;;1.35;;
43857;SDS011;29507;51.284;5.758;2023-02-28T15:38:11;4.13;;;1.35;;
43857;SDS011;29507;51.284;5.758;2023-02-28T15:40:43;4.03;;;1.37;;
43857;SDS011;29507;51.284;5.758;2023-02-28T15:43:18;3.97;;;1.83;;
43857;SDS011;29507;51.284;5.758;2023-02-28T15:45:58;5.18;;;1.90;;
43857;SDS011;29507;51.284;5.758;2023-02-28T15:48:27;3.53;;;1.38;;
43857;SDS011;29507;51.284;5.758;2023-02-28T15:50:56;2.80;;;1.42;;
43857;SDS011;29507;51.284;5.758;2023-02-28T15:53:30;3.33;;;1.55;;
43857;SDS011;29507;51.284;5.758;2023-02-28T15:56:03;3.97;;;1.70;;
43857;SDS011;29507;51.284;5.758;2023-02-28T15:58:32;5.05;;;2.03;;
43857;SDS011;29507;51.284;5.758;2023-02-28T16:01:00;4.25;;;1.70;;
43857;SDS011;29507;51.284;5.758;2023-02-28T16:04:06;3.22;;;1.55;;
43857;SDS011;29507;51.284;5.758;2023-02-28T16:06:35;3.90;;;1.77;;
43857;SDS011;29507;51.284;5.758;2023-02-28T16:09:11;7.38;;;1.83;;
43857;SDS011;29507;51.284;5.758;2023-02-28T16:11:45;3.95;;;1.60;;
43857;SDS011;29507;51.284;5.758;2023-02-28T16:14:14;6.38;;;1.95;;
43857;SDS011;29507;51.284;5.758;2023-02-28T16:16:53;3.97;;;1.70;;
43857;SDS011;29507;51.284;5.758;2023-02-28T16:19:20;3.20;;;1.75;;
43857;SDS011;29507;51.284;5.758;2023-02-28T16:21:47;3.65;;;1.77;;
43857;SDS011;29507;51.284;5.758;2023-02-28T16:24:13;3.15;;;1.77;;
43857;SDS011;29507;51.284;5.758;2023-02-28T16:26:39;3.60;;;1.70;;
43857;SDS011;29507;51.284;5.758;2023-02-28T16:29:08;4.97;;;1.67;;
43857;SDS011;29507;51.284;5.758;2023-02-28T16:31:38;3.90;;;1.73;;
43857;SDS011;29507;51.284;5.758;2023-02-28T16:34:04;6.05;;;1.95;;
43857;SDS011;29507;51.284;5.758;2023-02-28T16:36:30;7.97;;;2.22;;
43857;SDS011;29507;51.284;5.758;2023-02-28T16:38:56;4.25;;;1.83;;
43857;SDS011;29507;51.284;5.758;2023-02-28T16:41:23;3.10;;;1.70;;
43857;SDS011;29507;51.284;5.758;2023-02-28T16:46:18;3.95;;;2.35;;
43857;SDS011;29507;51.284;5.758;2023-02-28T16:48:45;4.70;;;2.38;;
43857;SDS011;29507;51.284;5.758;2023-02-28T16:51:16;5.45;;;2.70;;
43857;SDS011;29507;51.284;5.758;2023-02-28T16:53:43;3.92;;;1.80;;
43857;SDS011;29507;51.284;5.758;2023-02-28T16:56:19;5.30;;;2.15;;
43857;SDS011;29507;51.284;5.758;2023-02-28T16:58:46;4.18;;;1.95;;
43857;SDS011;29507;51.284;5.758;2023-02-28T17:01:13;3.80;;;2.08;;
43857;SDS011;29507;51.284;5.758;2023-02-28T17:03:39;4.07;;;2.08;;
43857;SDS011;29507;51.284;5.758;2023-02-28T17:06:05;3.80;;;2.00;;
43857;SDS011;29507;51.284;5.758;2023-02-28T17:08:38;5.43;;;2.17;;
43857;SDS011;29507;51.284;5.758;2023-02-28T17:11:04;3.40;;;1.90;;
43857;SDS011;29507;51.284;5.758;2023-02-28T17:13:29;3.85;;;2.10;;
43857;SDS011;29507;51.284;5.758;2023-02-28T17:15:55;3.20;;;1.77;;
43857;SDS011;29507;51.284;5.758;2023-02-28T17:18:21;4.57;;;1.90;;
43857;SDS011;29507;51.284;5.758;2023-02-28T17:20:47;4.85;;;1.92;;
43857;SDS011;29507;51.284;5.758;2023-02-28T17:23:13;4.05;;;2.25;;
43857;SDS011;29507;51.284;5.758;2023-02-28T17:25:39;6.38;;;2.33;;
43857;SDS011;29507;51.284;5.758;2023-02-28T17:28:04;3.28;;;1.90;;